Terminal Aerodrome Forecast
Issued by NWS Cleveland, OH

Home | Current Version | Previous Version | Graphics & Text | Print | Product List | Glossary Off
Versions: 1 2 3 4 5 6 7 8 9 10 11 12 13 14 15 16 17 18 19 20

000
FTUS41 KCLE 051131
TAFERI
TAF
KERI 051131Z 0512/0612 27015G25KT P6SM BKN015 OVC025
     FM052000 24010KT P6SM SCT015 OVC025
     FM052300 22006KT P6SM SCT025 BKN035
     FM060300 VRB04KT P6SM BKN035 OVC200
     FM060800 12008KT P6SM SCT100 OVC200=

USA.gov is the U.S. government's official web portal to all federal, state and local government web resources and services.